createdAt,value
2023-06-19T00:00:56.625Z,20.94
2023-06-19T00:03:09.553Z,20.95
2023-06-19T00:05:05.075Z,20.91
2023-06-19T00:07:00.326Z,20.85
2023-06-19T00:08:55.755Z,20.82
2023-06-19T00:10:52.552Z,20.79
2023-06-19T00:12:48.063Z,20.76
2023-06-19T00:14:43.980Z,20.73
2023-06-19T00:16:39.616Z,20.74
2023-06-19T00:18:41.815Z,20.77
2023-06-19T00:20:40.545Z,20.62
2023-06-19T00:22:35.782Z,20.55
2023-06-19T00:24:31.205Z,20.59
2023-06-19T00:26:26.554Z,20.60
2023-06-19T00:28:22.737Z,20.56
2023-06-19T00:30:19.117Z,20.52
2023-06-19T00:32:14.235Z,20.47
2023-06-19T00:34:12.276Z,20.48
2023-06-19T00:36:13.033Z,20.50
2023-06-19T00:38:09.505Z,20.42
2023-06-19T00:40:05.237Z,20.33
2023-06-19T00:42:00.719Z,20.27
2023-06-19T00:43:55.957Z,20.25
2023-06-19T00:45:51.498Z,20.28
2023-06-19T00:47:47.606Z,20.30
2023-06-19T00:49:46.319Z,20.29
2023-06-19T00:51:42.676Z,20.33
2023-06-19T00:53:38.382Z,20.38
2023-06-19T00:55:36.205Z,20.35
2023-06-19T00:57:32.433Z,20.31
2023-06-19T00:59:28.125Z,20.23
2023-06-19T01:01:25.255Z,20.17
2023-06-19T01:03:20.933Z,20.10
2023-06-19T01:05:20.516Z,20.03
2023-06-19T01:07:23.523Z,19.98
2023-06-19T01:09:20.858Z,19.99
2023-06-19T01:11:26.002Z,19.96
2023-06-19T01:13:31.346Z,19.99
2023-06-19T01:15:27.383Z,20.02
2023-06-19T01:17:24.262Z,20.02
2023-06-19T01:19:24.877Z,20.05
2023-06-19T01:21:24.393Z,20.07
2023-06-19T01:23:22.517Z,20.10
2023-06-19T01:25:16.067Z,20.10
2023-06-19T01:27:11.717Z,20.13
2023-06-19T01:29:08.168Z,20.15
2023-06-19T01:31:06.221Z,20.11
2023-06-19T01:33:09.194Z,20.04
2023-06-19T01:35:05.781Z,20.00
2023-06-19T01:37:02.976Z,19.99
2023-06-19T01:39:04.732Z,19.95
2023-06-19T01:41:02.301Z,20.02
2023-06-19T01:42:59.222Z,20.03
2023-06-19T01:44:55.440Z,19.90
2023-06-19T01:46:52.337Z,19.91
2023-06-19T01:48:48.641Z,19.86
2023-06-19T01:50:49.210Z,19.79
2023-06-19T01:52:45.227Z,19.79
2023-06-19T01:54:44.702Z,19.76
2023-06-19T01:56:40.742Z,19.71
2023-06-19T01:58:36.816Z,19.72
2023-06-19T02:00:36.738Z,19.75
2023-06-19T02:02:32.778Z,19.74
2023-06-19T02:04:28.943Z,19.73
2023-06-19T02:06:25.707Z,19.75
2023-06-19T02:08:21.339Z,19.70
2023-06-19T02:10:19.702Z,19.73
2023-06-19T02:12:16.315Z,19.67
2023-06-19T02:14:13.244Z,19.67
2023-06-19T02:16:09.428Z,19.61
2023-06-19T02:18:05.793Z,19.64
2023-06-19T02:20:01.536Z,19.64
2023-06-19T02:21:57.796Z,19.59
2023-06-19T02:23:53.607Z,19.59
2023-06-19T02:25:52.790Z,19.57
2023-06-19T02:27:49.250Z,19.60
2023-06-19T02:29:44.741Z,19.52
2023-06-19T02:31:39.920Z,19.53
2023-06-19T02:33:35.474Z,19.51
2023-06-19T02:35:30.807Z,19.52
2023-06-19T02:37:26.729Z,19.53
2023-06-19T02:39:22.264Z,19.45
2023-06-19T02:41:21.204Z,19.49
2023-06-19T02:43:16.831Z,19.51
2023-06-19T02:45:13.438Z,19.48
2023-06-19T02:47:09.657Z,19.42
2023-06-19T02:49:05.270Z,19.39
2023-06-19T02:51:00.690Z,19.42
2023-06-19T02:52:56.871Z,19.38
2023-06-19T02:54:52.576Z,19.35
2023-06-19T02:56:52.375Z,19.36
2023-06-19T02:58:48.197Z,19.39
2023-06-19T03:00:44.140Z,19.38
2023-06-19T03:02:43.112Z,19.36
2023-06-19T03:04:38.868Z,19.34
2023-06-19T03:06:34.586Z,19.33
2023-06-19T03:08:30.347Z,19.32
2023-06-19T03:10:26.403Z,19.25
2023-06-19T03:12:24.640Z,19.28
2023-06-19T03:14:20.228Z,19.30
2023-06-19T03:16:15.845Z,19.29
2023-06-19T03:18:12.244Z,19.30
2023-06-19T03:20:12.975Z,19.26
2023-06-19T03:22:08.958Z,19.24
2023-06-19T03:24:04.357Z,19.21
2023-06-19T03:26:00.249Z,19.24
2023-06-19T03:27:58.623Z,19.20
2023-06-19T03:29:54.939Z,19.14
2023-06-19T03:31:50.825Z,19.14
2023-06-19T03:33:46.660Z,19.12
2023-06-19T03:35:42.809Z,19.13
2023-06-19T03:37:40.139Z,19.16
2023-06-19T03:39:35.729Z,19.19
2023-06-19T03:41:31.183Z,19.17
2023-06-19T03:43:28.841Z,19.19
2023-06-19T03:45:24.480Z,19.16
2023-06-19T03:47:20.324Z,19.09
2023-06-19T03:49:16.688Z,19.03
2023-06-19T03:51:12.398Z,19.04
2023-06-19T03:53:08.625Z,19.06
2023-06-19T03:55:04.565Z,19.13
2023-06-19T03:57:00.555Z,19.16
2023-06-19T03:58:59.112Z,19.09
2023-06-19T04:00:55.605Z,19.09
2023-06-19T04:02:51.553Z,19.06
2023-06-19T04:04:48.147Z,19.04
2023-06-19T04:06:43.882Z,19.04
2023-06-19T04:08:40.455Z,19.02
2023-06-19T04:10:36.313Z,19.03
2023-06-19T04:12:32.116Z,19.03
2023-06-19T04:14:30.579Z,19.03
2023-06-19T04:16:26.448Z,19.03
2023-06-19T04:18:22.006Z,19.06
2023-06-19T04:20:17.662Z,19.07
2023-06-19T04:22:13.483Z,19.11
2023-06-19T04:24:10.277Z,19.16
2023-06-19T04:26:05.975Z,19.22
2023-06-19T04:28:04.773Z,19.27
2023-06-19T04:30:02.816Z,19.30
2023-06-19T04:31:58.710Z,19.34
2023-06-19T04:33:56.390Z,19.36
2023-06-19T04:35:52.246Z,19.36
2023-06-19T04:37:49.974Z,19.37
2023-06-19T04:39:46.368Z,19.37
2023-06-19T04:41:42.783Z,19.40
2023-06-19T04:43:38.802Z,19.46
2023-06-19T04:45:37.368Z,19.51
2023-06-19T04:47:43.619Z,19.53
2023-06-19T04:49:44.438Z,19.52
2023-06-19T04:51:40.395Z,19.51
2023-06-19T04:53:35.930Z,19.51
2023-06-19T04:55:31.783Z,19.53
2023-06-19T04:57:27.527Z,19.51
2023-06-19T04:59:23.308Z,19.56
2023-06-19T05:01:28.902Z,19.59
2023-06-19T05:03:25.223Z,19.60
2023-06-19T05:05:23.301Z,19.61
2023-06-19T05:07:20.065Z,19.63
2023-06-19T05:09:15.194Z,19.66
2023-06-19T05:11:10.654Z,19.67
2023-06-19T05:13:05.792Z,19.64
2023-06-19T05:15:01.206Z,19.67
2023-06-19T05:16:59.323Z,19.64
2023-06-19T05:18:55.508Z,19.68
2023-06-19T05:20:51.156Z,19.69
2023-06-19T05:22:46.656Z,19.68
2023-06-19T05:24:41.931Z,19.66
2023-06-19T05:26:37.469Z,19.67
2023-06-19T05:28:32.503Z,19.67
2023-06-19T05:30:27.922Z,19.65
2023-06-19T05:32:25.719Z,19.68
2023-06-19T05:34:21.255Z,19.63
2023-06-19T05:36:16.384Z,19.55
2023-06-19T05:38:11.791Z,19.52
2023-06-19T05:40:07.980Z,19.52
2023-06-19T05:42:04.658Z,19.52
2023-06-19T05:44:00.133Z,19.52
2023-06-19T05:45:59.464Z,19.53
2023-06-19T05:47:58.526Z,19.59
2023-06-19T05:49:54.813Z,19.61
2023-06-19T05:51:50.751Z,19.65
2023-06-19T05:53:47.233Z,19.71
2023-06-19T05:55:42.727Z,19.76
2023-06-19T05:57:39.264Z,19.83
2023-06-19T05:59:34.933Z,19.88
2023-06-19T06:01:31.587Z,19.89
2023-06-19T06:03:31.461Z,19.92
2023-06-19T06:05:28.110Z,19.91
2023-06-19T06:07:24.448Z,19.92
2023-06-19T06:09:20.917Z,19.98
2023-06-19T06:11:16.976Z,20.01
2023-06-19T06:13:13.271Z,20.02
2023-06-19T06:15:10.386Z,20.05
2023-06-19T06:17:07.312Z,20.06
2023-06-19T06:19:05.788Z,20.12
2023-06-19T06:21:02.058Z,20.15
2023-06-19T06:22:57.916Z,20.18
2023-06-19T06:24:54.800Z,20.19
2023-06-19T06:26:51.262Z,20.21
2023-06-19T06:28:47.044Z,20.25
2023-06-19T06:30:43.544Z,20.22
2023-06-19T06:32:39.361Z,20.18
2023-06-19T06:34:38.063Z,20.14
2023-06-19T06:36:36.901Z,20.12
2023-06-19T06:38:34.348Z,20.13
2023-06-19T06:40:30.183Z,20.12
2023-06-19T06:42:25.826Z,20.12
2023-06-19T06:44:21.806Z,20.16
2023-06-19T06:46:17.851Z,20.17
2023-06-19T06:48:14.260Z,20.19
2023-06-19T06:50:14.013Z,20.16
2023-06-19T06:52:11.254Z,20.16
2023-06-19T06:54:07.071Z,20.18
2023-06-19T06:56:04.549Z,20.14
2023-06-19T06:58:00.521Z,20.15
2023-06-19T06:59:56.559Z,20.16
2023-06-19T07:01:52.115Z,20.19
2023-06-19T07:03:48.233Z,20.22
2023-06-19T07:05:47.122Z,20.23
2023-06-19T07:07:42.735Z,20.25
2023-06-19T07:09:38.335Z,20.28
2023-06-19T07:11:33.942Z,20.24
2023-06-19T07:13:29.421Z,20.28
2023-06-19T07:15:25.267Z,20.32
2023-06-19T07:17:21.341Z,20.39
2023-06-19T07:19:17.338Z,20.43
2023-06-19T07:21:16.727Z,20.49
2023-06-19T07:23:13.781Z,20.56
2023-06-19T07:25:10.282Z,20.59
2023-06-19T07:27:06.776Z,20.63
2023-06-19T07:29:02.214Z,20.66
2023-06-19T07:30:57.713Z,20.67
2023-06-19T07:32:53.375Z,20.68
2023-06-19T07:34:48.901Z,20.69
2023-06-19T07:36:46.635Z,20.74
2023-06-19T07:38:42.564Z,20.76
2023-06-19T07:40:37.743Z,20.79
2023-06-19T07:42:33.190Z,20.84
2023-06-19T07:44:28.261Z,20.89
2023-06-19T07:46:23.745Z,20.92
2023-06-19T07:48:19.604Z,20.94
2023-06-19T07:50:16.348Z,21.01
2023-06-19T07:52:14.765Z,21.04
2023-06-19T07:54:10.207Z,21.11
2023-06-19T07:56:05.304Z,21.14
2023-06-19T07:58:01.044Z,21.23
2023-06-19T07:59:58.207Z,21.24
2023-06-19T08:01:53.583Z,21.33
2023-06-19T08:03:49.451Z,21.41
2023-06-19T08:05:44.987Z,21.50
2023-06-19T08:07:42.717Z,21.58
2023-06-19T08:09:38.436Z,21.61
2023-06-19T08:11:33.965Z,21.65
2023-06-19T08:13:29.745Z,21.71
2023-06-19T08:15:25.100Z,21.75
2023-06-19T08:17:20.584Z,21.78
2023-06-19T08:19:15.705Z,21.82
2023-06-19T08:21:11.501Z,21.84
2023-06-19T08:23:09.595Z,21.84
2023-06-19T08:25:05.474Z,21.86
2023-06-19T08:27:00.794Z,21.90
2023-06-19T08:28:56.743Z,21.90
2023-06-19T08:30:52.252Z,21.90
2023-06-19T08:32:49.575Z,21.92
2023-06-19T08:34:45.404Z,21.96
2023-06-19T08:36:41.264Z,21.95
2023-06-19T08:38:40.247Z,21.98
2023-06-19T08:40:37.176Z,22.02
2023-06-19T08:42:32.956Z,22.01
2023-06-19T08:44:29.015Z,22.02
2023-06-19T08:46:24.140Z,22.00
2023-06-19T08:48:19.784Z,22.01
2023-06-19T08:50:15.245Z,22.09
2023-06-19T08:52:12.009Z,22.12
2023-06-19T08:54:12.019Z,22.19
2023-06-19T08:56:08.440Z,22.18
2023-06-19T08:58:03.988Z,22.24
2023-06-19T08:59:59.836Z,22.30
2023-06-19T09:01:56.852Z,22.39
2023-06-19T09:03:53.877Z,22.35
2023-06-19T09:05:52.092Z,22.40
2023-06-19T09:07:57.895Z,22.45
2023-06-19T09:09:59.505Z,22.50
2023-06-19T09:12:02.440Z,22.53
2023-06-19T09:14:00.902Z,22.54
2023-06-19T09:16:03.918Z,22.57
2023-06-19T09:18:10.065Z,22.55
2023-06-19T09:20:07.049Z,22.52
2023-06-19T09:22:06.005Z,22.57
2023-06-19T09:24:06.956Z,22.56
2023-06-19T09:26:05.027Z,22.61
2023-06-19T09:28:01.168Z,22.66
2023-06-19T09:29:57.345Z,22.68
2023-06-19T09:31:52.923Z,22.71
2023-06-19T09:33:48.121Z,22.75
2023-06-19T09:35:43.990Z,22.74
2023-06-19T09:37:41.657Z,22.78
2023-06-19T09:39:40.446Z,22.82
2023-06-19T09:41:40.893Z,22.81
2023-06-19T09:43:39.750Z,22.84
2023-06-19T09:45:36.214Z,22.85
2023-06-19T09:47:35.244Z,22.84
2023-06-19T09:49:35.895Z,22.88
2023-06-19T09:51:34.916Z,22.82
2023-06-19T09:53:30.453Z,22.83
2023-06-19T09:55:30.531Z,22.84
2023-06-19T09:57:29.443Z,22.58
2023-06-19T09:59:25.872Z,22.63
2023-06-19T10:01:22.367Z,22.75
2023-06-19T10:03:18.469Z,22.84
2023-06-19T10:05:15.756Z,22.86
2023-06-19T10:07:22.960Z,22.95
2023-06-19T10:09:22.215Z,23.02
2023-06-19T10:11:18.242Z,22.89
2023-06-19T10:13:20.511Z,22.99
2023-06-19T10:15:19.710Z,23.06
2023-06-19T10:17:15.416Z,23.15
2023-06-19T10:19:16.171Z,23.13
2023-06-19T10:21:20.110Z,23.23
2023-06-19T10:23:20.750Z,23.25
2023-06-19T10:25:24.863Z,23.28
2023-06-19T10:27:25.312Z,23.23
2023-06-19T10:29:23.236Z,23.28
2023-06-19T10:31:19.664Z,23.37
2023-06-19T10:33:14.793Z,23.43
2023-06-19T10:35:15.190Z,23.37
2023-06-19T10:37:10.292Z,23.48
2023-06-19T10:39:05.764Z,23.56
2023-06-19T10:41:00.859Z,23.66
2023-06-19T10:42:56.920Z,23.70
2023-06-19T10:44:54.617Z,23.73
2023-06-19T10:46:50.137Z,23.73
2023-06-19T10:48:45.255Z,23.76
2023-06-19T10:50:45.598Z,23.76
2023-06-19T10:52:43.044Z,23.84
2023-06-19T10:54:38.568Z,23.86
2023-06-19T10:56:33.955Z,23.96
2023-06-19T10:58:29.807Z,24.00
2023-06-19T11:00:32.346Z,24.08
2023-06-19T11:02:28.712Z,24.07
2023-06-19T11:04:25.046Z,24.08
2023-06-19T11:06:23.947Z,24.21
2023-06-19T11:08:22.622Z,24.33
2023-06-19T11:10:24.035Z,24.42
2023-06-19T11:12:24.172Z,24.59
2023-06-19T11:14:21.159Z,24.61
2023-06-19T11:16:21.373Z,24.68
2023-06-19T11:18:19.684Z,24.68
2023-06-19T11:20:17.973Z,24.67
2023-06-19T11:22:13.980Z,24.66
2023-06-19T11:24:15.460Z,24.61
2023-06-19T11:26:11.151Z,24.61
2023-06-19T11:28:06.838Z,24.66
2023-06-19T11:30:05.554Z,24.60
2023-06-19T11:32:12.663Z,24.62
2023-06-19T11:34:08.761Z,24.58
2023-06-19T11:36:05.782Z,24.62
2023-06-19T11:38:01.709Z,24.62
2023-06-19T11:39:56.922Z,24.55
2023-06-19T11:41:54.757Z,24.59
2023-06-19T11:43:50.042Z,24.59
2023-06-19T11:45:50.600Z,24.55
2023-06-19T11:47:49.936Z,24.51
2023-06-19T11:49:45.380Z,24.53
2023-06-19T11:51:40.664Z,24.53
2023-06-19T11:53:36.254Z,24.49
2023-06-19T11:55:32.023Z,24.62
2023-06-19T11:57:27.610Z,24.68
2023-06-19T11:59:23.037Z,24.79
2023-06-19T12:01:18.952Z,24.82
2023-06-19T12:03:17.257Z,24.96
2023-06-19T12:05:13.730Z,25.06
2023-06-19T12:07:09.833Z,25.03
2023-06-19T12:09:06.014Z,25.11
2023-06-19T12:11:01.250Z,25.12
2023-06-19T12:12:57.293Z,25.26
2023-06-19T12:14:53.026Z,25.38
2023-06-19T12:16:49.522Z,25.40
2023-06-19T12:18:47.622Z,25.45
2023-06-19T12:20:43.413Z,25.62
2023-06-19T12:22:39.176Z,25.86
2023-06-19T12:24:35.057Z,25.87
2023-06-19T12:26:30.494Z,25.94
2023-06-19T12:28:26.737Z,26.18
2023-06-19T12:30:22.438Z,26.42
2023-06-19T12:32:18.764Z,26.68
2023-06-19T12:34:30.560Z,26.74
2023-06-19T12:36:28.216Z,26.87
2023-06-19T12:38:24.119Z,26.93
2023-06-19T12:40:20.211Z,26.95
2023-06-19T12:42:15.918Z,27.00
2023-06-19T12:44:11.598Z,26.80
2023-06-19T12:46:07.290Z,26.95
2023-06-19T12:48:03.318Z,27.02
2023-06-19T12:50:01.484Z,27.14
2023-06-19T12:51:57.426Z,27.27
2023-06-19T12:53:53.338Z,27.42
2023-06-19T12:56:00.815Z,27.41
2023-06-19T12:57:58.697Z,27.42
2023-06-19T12:59:54.615Z,27.70
2023-06-19T13:01:50.272Z,27.85
2023-06-19T13:03:46.258Z,27.73
2023-06-19T13:05:44.531Z,27.62
2023-06-19T13:07:40.317Z,27.51
2023-06-19T13:09:37.210Z,27.34
2023-06-19T13:11:33.053Z,27.35
2023-06-19T13:13:28.581Z,27.55
2023-06-19T13:15:24.435Z,27.59
2023-06-19T13:17:19.960Z,27.46
2023-06-19T13:19:15.773Z,27.72
2023-06-19T13:21:15.244Z,28.01
2023-06-19T13:23:10.786Z,28.24
2023-06-19T13:25:06.543Z,28.44
2023-06-19T13:27:02.160Z,28.57
2023-06-19T13:29:02.565Z,28.93
2023-06-19T13:30:58.233Z,29.13
2023-06-19T13:32:56.113Z,29.14
2023-06-19T13:35:24.719Z,29.01
2023-06-19T13:38:39.121Z,28.67
2023-06-19T13:42:19.065Z,29.07
2023-06-19T13:44:43.568Z,29.34
2023-06-19T13:47:18.901Z,29.56
2023-06-19T13:49:17.672Z,29.60
2023-06-19T13:51:26.160Z,29.46
2023-06-19T13:53:40.070Z,29.62
2023-06-19T13:55:52.833Z,29.57
2023-06-19T13:58:19.261Z,29.28
2023-06-19T14:00:50.030Z,28.91
2023-06-19T14:03:19.298Z,28.64
2023-06-19T14:12:29.972Z,29.05
2023-06-19T14:14:30.282Z,29.24
2023-06-19T14:16:25.827Z,29.12
2023-06-19T14:18:42.061Z,28.89
2023-06-19T14:21:17.313Z,28.84
2023-06-19T14:23:14.704Z,28.83
2023-06-19T14:25:10.764Z,28.93
2023-06-19T14:27:15.642Z,29.05
2023-06-19T14:29:49.795Z,28.75
2023-06-19T14:31:47.257Z,28.91
2023-06-19T14:33:44.835Z,28.82
2023-06-19T14:35:52.151Z,28.70
2023-06-19T14:38:10.076Z,28.87
2023-06-19T14:40:11.466Z,28.96
2023-06-19T14:42:10.996Z,29.14
2023-06-19T14:44:07.406Z,29.02
2023-06-19T14:46:06.498Z,29.00
2023-06-19T14:48:06.457Z,29.23
2023-06-19T14:50:02.159Z,29.29
2023-06-19T14:52:00.912Z,29.43
2023-06-19T14:53:57.632Z,29.12
2023-06-19T14:55:53.145Z,29.51
2023-06-19T14:57:48.975Z,29.71
2023-06-19T14:59:48.002Z,29.59
2023-06-19T15:01:49.174Z,29.64
2023-06-19T15:04:16.887Z,29.93
2023-06-19T15:06:22.751Z,30.03
2023-06-19T15:08:40.270Z,30.39
2023-06-19T15:10:38.726Z,30.46
2023-06-19T15:12:43.502Z,30.10
2023-06-19T15:14:54.565Z,30.01
2023-06-19T15:17:06.838Z,29.93
2023-06-19T15:19:13.244Z,29.94
2023-06-19T15:21:15.061Z,29.85
2023-06-19T15:23:36.785Z,30.15
2023-06-19T15:26:54.830Z,30.41
2023-06-19T15:29:23.566Z,30.39
2023-06-19T15:31:21.853Z,30.35
2023-06-19T15:33:24.550Z,29.82
2023-06-19T15:38:15.260Z,29.89
2023-06-19T15:40:12.837Z,29.91
2023-06-19T15:42:08.540Z,30.05
2023-06-19T15:44:08.490Z,29.72
2023-06-19T15:46:07.389Z,29.68
2023-06-19T15:48:04.479Z,29.82
2023-06-19T15:50:03.516Z,29.92
2023-06-19T15:52:04.286Z,29.59
2023-06-19T15:54:00.067Z,29.57
2023-06-19T15:56:19.370Z,29.80
2023-06-19T15:58:15.259Z,29.80
2023-06-19T16:00:14.039Z,29.92
2023-06-19T16:02:13.184Z,29.82
2023-06-19T16:04:09.815Z,30.07
2023-06-19T16:06:08.871Z,29.97
2023-06-19T16:08:04.816Z,29.91
2023-06-19T16:10:01.302Z,30.14
2023-06-19T16:11:59.682Z,30.15
2023-06-19T16:13:56.465Z,30.00
2023-06-19T16:15:52.413Z,29.93
2023-06-19T16:17:48.249Z,29.80
2023-06-19T16:19:45.299Z,29.55
2023-06-19T16:22:18.454Z,29.57
2023-06-19T16:24:27.652Z,29.78
2023-06-19T16:26:23.338Z,29.76
2023-06-19T16:28:18.732Z,29.66
2023-06-19T16:30:15.329Z,29.69
2023-06-19T16:32:11.464Z,29.48
2023-06-19T16:34:07.716Z,29.45
2023-06-19T16:36:03.354Z,29.48
2023-06-19T16:38:01.905Z,29.58
2023-06-19T16:39:57.436Z,29.64
2023-06-19T16:41:53.939Z,29.58
2023-06-19T16:43:52.288Z,29.52
2023-06-19T16:45:48.059Z,29.38
2023-06-19T16:47:43.498Z,29.30
2023-06-19T16:49:39.549Z,29.34
2023-06-19T16:51:34.933Z,29.20
2023-06-19T16:53:33.412Z,29.05
2023-06-19T16:55:28.896Z,29.03
2023-06-19T16:57:27.280Z,28.99
2023-06-19T16:59:23.134Z,29.08
2023-06-19T17:01:19.322Z,29.24
2023-06-19T17:03:15.257Z,29.16
2023-06-19T17:05:11.956Z,29.22
2023-06-19T17:07:07.578Z,29.21
2023-06-19T17:09:06.436Z,29.24
2023-06-19T17:11:02.755Z,29.29
2023-06-19T17:12:59.185Z,29.31
2023-06-19T17:14:57.863Z,29.33
2023-06-19T17:16:56.119Z,29.33
2023-06-19T17:18:54.369Z,29.33
2023-06-19T17:20:50.027Z,29.32
2023-06-19T17:22:47.833Z,29.15
2023-06-19T17:24:46.167Z,29.14
2023-06-19T17:26:44.991Z,29.09
2023-06-19T17:28:40.432Z,29.02
2023-06-19T17:30:37.542Z,29.04
2023-06-19T17:32:34.634Z,29.05
2023-06-19T17:34:32.896Z,29.05
2023-06-19T17:36:28.675Z,28.96
2023-06-19T17:38:26.665Z,29.02
2023-06-19T17:40:26.449Z,28.93
2023-06-19T17:42:22.328Z,28.89
2023-06-19T17:44:18.393Z,28.87
2023-06-19T17:46:15.771Z,28.83
2023-06-19T17:48:11.616Z,28.80
2023-06-19T17:50:07.675Z,28.70
2023-06-19T17:52:03.871Z,28.73
2023-06-19T17:54:05.354Z,28.73
2023-06-19T17:56:06.158Z,28.65
2023-06-19T17:58:01.756Z,28.63
2023-06-19T18:00:05.487Z,28.60
2023-06-19T18:02:04.027Z,28.60
2023-06-19T18:04:00.313Z,28.57
2023-06-19T18:05:56.035Z,28.51
2023-06-19T18:07:52.050Z,28.41
2023-06-19T18:09:48.767Z,28.38
2023-06-19T18:11:47.910Z,28.43
2023-06-19T18:13:45.315Z,28.44
2023-06-19T18:15:43.065Z,28.28
2023-06-19T18:17:39.297Z,28.36
2023-06-19T18:19:35.813Z,28.27
2023-06-19T18:21:32.247Z,28.23
2023-06-19T18:23:28.627Z,28.22
2023-06-19T18:25:24.336Z,28.20
2023-06-19T18:27:22.671Z,28.19
2023-06-19T18:29:19.766Z,28.06
2023-06-19T18:31:15.531Z,28.02
2023-06-19T18:33:11.063Z,28.06
2023-06-19T18:35:07.721Z,28.14
2023-06-19T18:37:03.337Z,28.11
2023-06-19T18:38:59.313Z,27.98
2023-06-19T18:40:54.835Z,28.02
2023-06-19T18:42:53.255Z,28.01
2023-06-19T18:44:48.691Z,27.99
2023-06-19T18:46:44.859Z,27.94
2023-06-19T18:48:42.575Z,27.90
2023-06-19T18:50:41.709Z,27.85
2023-06-19T18:52:37.683Z,27.78
2023-06-19T18:54:34.308Z,27.75
2023-06-19T18:56:29.991Z,27.72
2023-06-19T18:58:29.769Z,27.76
2023-06-19T19:00:25.548Z,27.80
2023-06-19T19:02:21.646Z,27.76
2023-06-19T19:04:17.344Z,27.69
2023-06-19T19:06:14.395Z,27.66
2023-06-19T19:08:11.825Z,27.61
2023-06-19T19:10:08.219Z,27.51
2023-06-19T19:12:03.311Z,27.48
2023-06-19T19:14:01.464Z,27.45
2023-06-19T19:15:56.853Z,27.39
2023-06-19T19:17:53.200Z,27.38
2023-06-19T19:19:48.899Z,27.33
2023-06-19T19:21:44.743Z,27.32
2023-06-19T19:23:40.211Z,27.28
2023-06-19T19:25:36.303Z,27.31
2023-06-19T19:27:34.813Z,27.27
2023-06-19T19:29:33.517Z,27.21
2023-06-19T19:31:28.955Z,27.16
2023-06-19T19:33:24.947Z,27.09
2023-06-19T19:35:20.526Z,27.07
2023-06-19T19:37:16.407Z,27.03
2023-06-19T19:39:11.776Z,26.99
2023-06-19T19:41:07.710Z,26.85
2023-06-19T19:43:04.524Z,26.85
2023-06-19T19:45:05.393Z,26.83
2023-06-19T19:47:02.191Z,26.83
2023-06-19T19:48:57.821Z,26.84
2023-06-19T19:50:52.980Z,26.78
2023-06-19T19:52:48.571Z,26.74
2023-06-19T19:54:43.801Z,26.74
2023-06-19T19:56:39.515Z,26.67
2023-06-19T19:58:34.699Z,26.61
2023-06-19T20:00:32.932Z,26.61
2023-06-19T20:02:28.149Z,26.59
2023-06-19T20:04:24.245Z,26.46
2023-06-19T20:06:19.357Z,26.50
2023-06-19T20:08:15.641Z,26.42
2023-06-19T20:10:12.018Z,26.39
2023-06-19T20:12:20.677Z,26.35
2023-06-19T20:14:17.489Z,26.32
2023-06-19T20:16:16.671Z,26.28
2023-06-19T20:18:11.995Z,26.24
2023-06-19T20:20:08.803Z,26.19
2023-06-19T20:22:03.941Z,26.19
2023-06-19T20:23:59.490Z,26.16
2023-06-19T20:25:54.690Z,26.16
2023-06-19T20:28:06.538Z,26.13
2023-06-19T20:30:03.685Z,26.03
2023-06-19T20:32:01.996Z,25.96
2023-06-19T20:33:57.022Z,25.95
2023-06-19T20:35:52.852Z,25.93
2023-06-19T20:37:48.076Z,25.90
2023-06-19T20:39:43.564Z,25.86
2023-06-19T20:41:38.815Z,25.80
2023-06-19T20:43:34.366Z,25.79
2023-06-19T20:45:29.439Z,25.73
2023-06-19T20:47:28.601Z,25.75
2023-06-19T20:49:24.259Z,25.72
2023-06-19T20:51:19.720Z,25.73
2023-06-19T20:53:14.830Z,25.73
2023-06-19T20:55:12.632Z,25.73
2023-06-19T20:57:08.212Z,25.70
2023-06-19T20:59:03.778Z,25.68
2023-06-19T21:00:59.070Z,25.65
2023-06-19T21:03:10.075Z,25.63
2023-06-19T21:05:12.487Z,25.62
2023-06-19T21:07:09.758Z,25.57
2023-06-19T21:09:21.362Z,25.51
2023-06-19T21:11:16.832Z,25.50
2023-06-19T21:13:21.860Z,25.49
2023-06-19T21:15:18.407Z,25.48
2023-06-19T21:17:14.017Z,25.42
2023-06-19T21:19:12.023Z,25.42
2023-06-19T21:21:07.227Z,25.38
2023-06-19T21:23:03.015Z,25.40
2023-06-19T21:24:58.116Z,25.37
2023-06-19T21:26:53.521Z,25.34
2023-06-19T21:28:48.662Z,25.28
2023-06-19T21:30:44.063Z,25.27
2023-06-19T21:32:39.253Z,25.23
2023-06-19T21:34:37.379Z,25.20
2023-06-19T21:36:32.479Z,25.19
2023-06-19T21:38:29.068Z,25.12
2023-06-19T21:40:24.620Z,25.13
2023-06-19T21:42:20.202Z,25.14
2023-06-19T21:44:15.781Z,25.13
2023-06-19T21:46:11.545Z,25.05
2023-06-19T21:48:07.486Z,25.02
2023-06-19T21:50:06.202Z,24.99
2023-06-19T21:52:01.628Z,24.95
2023-06-19T21:53:57.559Z,24.93
2023-06-19T21:55:53.033Z,24.91
2023-06-19T21:57:59.568Z,24.86
2023-06-19T21:59:56.157Z,24.84
2023-06-19T22:01:52.027Z,24.82
2023-06-19T22:03:47.672Z,24.80
2023-06-19T22:05:46.473Z,24.75
2023-06-19T22:07:41.824Z,24.73
2023-06-19T22:09:37.582Z,24.71
2023-06-19T22:11:33.266Z,24.65
2023-06-19T22:13:30.394Z,24.62
2023-06-19T22:15:26.361Z,24.59
2023-06-19T22:17:22.844Z,24.54
2023-06-19T22:19:17.993Z,24.53
2023-06-19T22:21:15.977Z,24.52
2023-06-19T22:23:11.026Z,24.48
2023-06-19T22:25:06.667Z,24.47
2023-06-19T22:27:01.746Z,24.43
2023-06-19T22:28:57.496Z,24.38
2023-06-19T22:30:52.830Z,24.34
2023-06-19T22:32:48.647Z,24.30
2023-06-19T22:34:44.208Z,24.30
2023-06-19T22:36:42.774Z,24.28
2023-06-19T22:38:38.120Z,24.26
2023-06-19T22:40:33.897Z,24.24
2023-06-19T22:42:29.417Z,24.22
2023-06-19T22:44:25.227Z,24.20
2023-06-19T22:46:20.869Z,24.16
2023-06-19T22:48:19.661Z,24.07
2023-06-19T22:50:15.639Z,24.00
2023-06-19T22:52:14.077Z,23.97
2023-06-19T22:54:09.509Z,23.93
2023-06-19T22:56:05.515Z,23.90
2023-06-19T22:58:00.973Z,23.90
2023-06-19T22:59:57.150Z,23.91
2023-06-19T23:01:52.670Z,23.92
2023-06-19T23:03:48.106Z,23.94
2023-06-19T23:05:43.155Z,23.95
2023-06-19T23:07:41.326Z,23.96
2023-06-19T23:09:36.416Z,23.97
2023-06-19T23:11:31.790Z,23.99
2023-06-19T23:13:26.938Z,23.97
2023-06-19T23:15:22.534Z,23.96
2023-06-19T23:17:17.923Z,23.94
2023-06-19T23:19:13.386Z,23.94
2023-06-19T23:21:09.036Z,23.93
2023-06-19T23:23:07.026Z,23.93
2023-06-19T23:25:02.254Z,23.94
2023-06-19T23:26:57.761Z,23.93
2023-06-19T23:28:52.812Z,23.90
2023-06-19T23:30:52.264Z,23.85
2023-06-19T23:32:47.386Z,23.83
2023-06-19T23:34:42.776Z,23.82
2023-06-19T23:36:37.828Z,23.78
2023-06-19T23:38:35.867Z,23.74
2023-06-19T23:40:31.113Z,23.74
2023-06-19T23:42:26.670Z,23.70
2023-06-19T23:44:21.926Z,23.67
2023-06-19T23:46:19.135Z,23.55
2023-06-19T23:48:14.371Z,23.54
2023-06-19T23:50:11.263Z,23.54
2023-06-19T23:52:06.977Z,23.52
2023-06-19T23:54:05.053Z,23.48
2023-06-19T23:56:00.066Z,23.43
2023-06-19T23:57:55.529Z,23.44
2023-06-19T23:59:50.832Z,23.41
